Time;durP1;ratioP1;P1;durP2;ratioP2;P2;SDS_P1;SDS_P2;PMS_P1;PMS_P2;Temp;Humidity;BMP_temperature;BMP_pressure;BME280_temperature;BME280_humidity;BME280_pressure;Samples;Min_cycle;Max_cycle;Signal;HPM_P1;HPM_P2
2022/05/29 00:00:44;;;;;;;;;;;12.00;99.90;;;;;;5107462;28;19920;-69
2022/05/29 00:03:10;;;;;;;;;;;11.90;99.90;;;;;;5106665;28;19900;-70
2022/05/29 00:05:36;;;;;;;;;;;11.80;99.90;;;;;;5108644;28;19923;-69
2022/05/29 00:08:02;;;;;;;;;;;11.80;99.90;;;;;;5105070;28;20431;-69
2022/05/29 00:10:28;;;;;;;;;;;11.80;99.90;;;;;;5108049;28;19912;-70
2022/05/29 00:12:53;;;;;;;;;;;11.80;99.90;;;;;;5106508;28;19920;-70
2022/05/29 00:15:19;;;;;;;;;;;11.70;99.90;;;;;;5107881;28;19912;-69
2022/05/29 00:17:45;;;;;;;;;;;11.70;99.90;;;;;;5109997;28;19916;-69
2022/05/29 00:20:10;;;;;;;;;;;11.70;99.90;;;;;;5106566;28;19938;-69
2022/05/29 00:22:36;;;;;;;;;;;11.60;99.90;;;;;;5110082;28;19933;-68
2022/05/29 00:25:04;;;;;;;;;;;11.60;99.90;;;;;;5104536;28;19919;-69
2022/05/29 00:27:30;;;;;;;;;;;11.60;99.90;;;;;;5101781;28;19984;-70
2022/05/29 00:29:56;;;;;;;;;;;11.60;99.90;;;;;;5103415;28;20412;-70
2022/05/29 00:32:21;;;;;;;;;;;11.60;99.90;;;;;;5109686;28;19961;-68
2022/05/29 00:34:47;;;;;;;;;;;11.60;99.90;;;;;;5105147;28;19912;-69
2022/05/29 00:37:12;;;;;;;;;;;11.60;99.90;;;;;;5105980;28;20323;-70
2022/05/29 00:39:41;;;;;;;;;;;11.60;99.90;;;;;;5105708;28;20059;-70
2022/05/29 00:42:08;;;;;;;;;;;11.60;99.90;;;;;;5087655;28;19923;-69
2022/05/29 00:44:34;;;;;;;;;;;11.60;99.90;;;;;;5104362;28;19924;-69
2022/05/29 00:47:01;;;;;;;;;;;11.50;99.90;;;;;;5106330;28;19971;-69
2022/05/29 00:49:27;;;;;;;;;;;11.50;99.90;;;;;;5106321;28;19957;-68
2022/05/29 00:51:54;;;;;;;;;;;11.40;99.90;;;;;;5102905;28;19987;-70
2022/05/29 00:54:20;;;;;;;;;;;11.40;99.90;;;;;;5107195;28;19966;-69
2022/05/29 00:56:46;;;;;;;;;;;11.30;99.90;;;;;;5108069;28;19900;-68
2022/05/29 00:59:21;;;;;;;;;;;11.30;99.90;;;;;;5089129;28;19911;-69
2022/05/29 01:01:46;;;;;;;;;;;11.30;99.90;;;;;;5108927;28;19991;-70
2022/05/29 01:04:12;;;;;;;;;;;11.30;99.90;;;;;;5106199;28;19931;-68
2022/05/29 01:06:38;;;;;;;;;;;11.30;99.90;;;;;;5087706;28;19900;-69
2022/05/29 01:09:05;;;;;;;;;;;11.30;99.90;;;;;;5107069;28;19919;-69
2022/05/29 01:11:45;;;;;;;;;;;11.20;99.90;;;;;;5086968;28;19912;-69
2022/05/29 01:14:17;;;;;;;;;;;11.30;99.90;;;;;;5104579;28;19900;-68
2022/05/29 01:16:56;;;;;;;;;;;11.30;99.90;;;;;;5086345;28;19897;-69
2022/05/29 01:19:40;;;;;;;;;;;11.40;99.90;;;;;;5105101;28;19916;-70
2022/05/29 01:22:24;;;;;;;;;;;11.40;99.90;;;;;;5066142;28;19909;-69
2022/05/29 01:25:08;;;;;;;;;;;11.40;99.90;;;;;;5063576;28;19917;-70
2022/05/29 01:27:44;;;;;;;;;;;11.50;99.90;;;;;;5062833;28;19956;-70
2022/05/29 01:30:24;;;;;;;;;;;11.50;99.90;;;;;;5062996;28;19916;-68
2022/05/29 01:33:00;;;;;;;;;;;11.70;99.90;;;;;;5066407;28;20483;-69
2022/05/29 01:35:44;;;;;;;;;;;11.80;99.90;;;;;;5064659;28;19917;-69
2022/05/29 01:38:30;;;;;;;;;;;11.70;99.90;;;;;;5066910;28;19897;-68
2022/05/29 01:41:12;;;;;;;;;;;11.70;99.90;;;;;;5063966;28;19928;-68
2022/05/29 01:44:01;;;;;;;;;;;11.80;99.90;;;;;;5067041;28;19928;-70
2022/05/29 01:46:30;;;;;;;;;;;11.80;99.90;;;;;;5043093;28;19988;-69
2022/05/29 01:49:16;;;;;;;;;;;11.80;99.90;;;;;;5062088;28;19927;-69
2022/05/29 01:51:42;;;;;;;;;;;11.80;99.90;;;;;;5068630;28;19968;-69
2022/05/29 01:54:10;;;;;;;;;;;11.80;99.90;;;;;;5069057;28;19916;-69
2022/05/29 01:56:39;;;;;;;;;;;11.70;99.90;;;;;;5065994;28;19917;-69
2022/05/29 01:59:07;;;;;;;;;;;11.60;99.90;;;;;;5063882;28;20567;-69
2022/05/29 02:01:35;;;;;;;;;;;11.70;99.90;;;;;;5069057;28;19917;-70
2022/05/29 02:04:03;;;;;;;;;;;11.80;99.90;;;;;;5067278;28;19913;-69
2022/05/29 02:09:22;;;;;;;;;;;11.80;99.90;;;;;;5066016;28;19923;-68
2022/05/29 02:11:50;;;;;;;;;;;11.80;99.90;;;;;;5066436;28;20515;-68
2022/05/29 02:14:19;;;;;;;;;;;11.80;99.90;;;;;;5068868;28;19927;-69
2022/05/29 02:16:47;;;;;;;;;;;11.60;99.90;;;;;;5064631;28;19927;-69
2022/05/29 02:19:22;;;;;;;;;;;11.70;99.90;;;;;;5070041;28;19976;-69
2022/05/29 02:21:54;;;;;;;;;;;11.50;99.90;;;;;;5103369;28;19930;-68
2022/05/29 02:24:22;;;;;;;;;;;11.50;99.90;;;;;;5111984;28;19928;-69
2022/05/29 02:26:50;;;;;;;;;;;11.40;99.90;;;;;;5108137;28;19934;-69
2022/05/29 02:29:16;;;;;;;;;;;11.40;99.90;;;;;;5108351;28;19912;-69
2022/05/29 02:31:48;;;;;;;;;;;11.30;99.90;;;;;;5108786;28;19999;-69
2022/05/29 02:34:16;;;;;;;;;;;11.30;99.90;;;;;;5104378;28;19920;-69
2022/05/29 02:37:02;;;;;;;;;;;11.20;99.90;;;;;;5104877;28;19923;-69
2022/05/29 02:39:38;;;;;;;;;;;11.20;99.90;;;;;;5104826;28;20392;-69
2022/05/29 02:42:33;;;;;;;;;;;11.20;99.90;;;;;;5105114;28;19962;-69
2022/05/29 02:44:59;;;;;;;;;;;11.10;99.90;;;;;;5004019;28;19914;-69
2022/05/29 02:47:54;;;;;;;;;;;11.10;99.90;;;;;;5107065;28;19912;-69
2022/05/29 02:50:34;;;;;;;;;;;11.00;99.90;;;;;;5084955;28;19919;-70
2022/05/29 02:53:02;;;;;;;;;;;11.00;99.90;;;;;;5107303;28;20079;-70
2022/05/29 02:55:27;;;;;;;;;;;11.10;99.90;;;;;;5108104;28;19933;-69
2022/05/29 02:57:56;;;;;;;;;;;11.10;99.90;;;;;;5106595;28;19920;-69
2022/05/29 03:00:22;;;;;;;;;;;11.10;99.90;;;;;;5104161;28;19920;-70
2022/05/29 03:02:47;;;;;;;;;;;11.10;99.90;;;;;;5107868;28;19997;-71
2022/05/29 03:05:19;;;;;;;;;;;11.30;99.90;;;;;;5104548;28;19912;-70
2022/05/29 03:08:04;;;;;;;;;;;11.40;99.90;;;;;;5107432;28;19958;-70
2022/05/29 03:10:32;;;;;;;;;;;11.20;99.90;;;;;;5105999;28;19896;-69
2022/05/29 03:13:01;;;;;;;;;;;11.20;99.90;;;;;;5105979;28;19922;-69
2022/05/29 03:15:26;;;;;;;;;;;11.10;99.90;;;;;;5106703;28;19896;-69
2022/05/29 03:17:55;;;;;;;;;;;11.20;99.90;;;;;;5091917;28;19950;-69
2022/05/29 03:20:23;;;;;;;;;;;11.30;99.90;;;;;;5107313;28;19943;-69
2022/05/29 03:22:54;;;;;;;;;;;11.30;99.90;;;;;;5107604;28;19907;-70
2022/05/29 03:25:26;;;;;;;;;;;11.40;99.90;;;;;;5088825;28;19916;-70
2022/05/29 03:27:55;;;;;;;;;;;11.40;99.90;;;;;;5104253;28;19900;-69
2022/05/29 03:30:22;;;;;;;;;;;11.30;99.90;;;;;;5108644;28;19919;-69
2022/05/29 03:32:49;;;;;;;;;;;11.30;99.90;;;;;;5109072;28;19917;-69
2022/05/29 03:35:15;;;;;;;;;;;11.30;99.90;;;;;;5106678;28;19912;-69
2022/05/29 03:37:40;;;;;;;;;;;11.30;99.90;;;;;;5107797;28;19912;-69
2022/05/29 03:40:06;;;;;;;;;;;11.30;99.90;;;;;;5106629;28;19947;-69
2022/05/29 03:42:31;;;;;;;;;;;11.20;99.90;;;;;;5110175;28;19931;-71
2022/05/29 03:44:57;;;;;;;;;;;11.30;99.90;;;;;;5109456;28;20049;-70
2022/05/29 03:47:22;;;;;;;;;;;11.30;99.90;;;;;;5105738;28;19912;-69
2022/05/29 03:49:48;;;;;;;;;;;11.30;99.90;;;;;;5104303;28;21821;-69
2022/05/29 03:52:13;;;;;;;;;;;11.30;99.90;;;;;;5105908;28;19912;-69
2022/05/29 03:54:39;;;;;;;;;;;11.20;99.90;;;;;;5105935;28;19967;-68
2022/05/29 03:57:05;;;;;;;;;;;11.20;99.90;;;;;;5107588;28;19920;-69
2022/05/29 03:59:30;;;;;;;;;;;11.30;99.90;;;;;;5103447;28;19920;-69
2022/05/29 04:01:56;;;;;;;;;;;11.30;99.90;;;;;;5103820;28;19931;-70
2022/05/29 04:04:21;;;;;;;;;;;11.20;99.90;;;;;;5104049;28;19900;-69
2022/05/29 04:06:47;;;;;;;;;;;11.20;99.90;;;;;;5103327;28;19979;-69
2022/05/29 04:12:04;;;;;;;;;;;11.20;99.90;;;;;;5076086;28;19962;-70
2022/05/29 04:14:40;;;;;;;;;;;11.20;99.90;;;;;;5107013;28;19920;-69
2022/05/29 04:17:06;;;;;;;;;;;11.20;99.90;;;;;;5105927;28;19916;-68
2022/05/29 04:19:32;;;;;;;;;;;11.10;99.90;;;;;;5103031;28;19916;-69
2022/05/29 04:21:58;;;;;;;;;;;11.10;99.90;;;;;;5105439;28;20829;-70
2022/05/29 04:24:24;;;;;;;;;;;11.20;99.90;;;;;;5108304;28;19934;-69
2022/05/29 04:26:49;;;;;;;;;;;11.20;99.90;;;;;;5105293;28;19923;-69
2022/05/29 04:29:16;;;;;;;;;;;11.10;99.90;;;;;;5105673;28;19975;-69
2022/05/29 04:34:25;;;;;;;;;;;11.10;99.90;;;;;;5104536;28;19919;-70
2022/05/29 04:36:51;;;;;;;;;;;11.10;99.90;;;;;;5104154;28;19912;-70
2022/05/29 04:39:16;;;;;;;;;;;11.10;99.90;;;;;;5107198;28;19962;-70
2022/05/29 04:41:42;;;;;;;;;;;11.10;99.90;;;;;;5103070;28;20077;-70
2022/05/29 04:44:07;;;;;;;;;;;11.20;99.90;;;;;;5108473;28;19919;-70
2022/05/29 04:46:33;;;;;;;;;;;11.30;99.90;;;;;;5104340;28;20108;-69
2022/05/29 04:48:59;;;;;;;;;;;11.30;99.90;;;;;;5107876;28;19958;-70
2022/05/29 04:51:24;;;;;;;;;;;11.20;99.90;;;;;;5105547;28;20524;-70
2022/05/29 04:53:50;;;;;;;;;;;11.40;99.90;;;;;;5102177;28;20285;-68
2022/05/29 04:56:15;;;;;;;;;;;11.40;99.90;;;;;;5109798;28;19947;-69
2022/05/29 04:58:41;;;;;;;;;;;11.50;99.90;;;;;;5111226;28;19984;-70
2022/05/29 05:01:06;;;;;;;;;;;11.40;99.90;;;;;;5109059;28;19935;-70
2022/05/29 05:03:32;;;;;;;;;;;11.40;99.90;;;;;;5093536;28;19919;-70
2022/05/29 05:05:57;;;;;;;;;;;11.40;99.90;;;;;;5091992;28;19920;-69
2022/05/29 05:08:23;;;;;;;;;;;11.30;99.90;;;;;;5083507;28;19912;-69
2022/05/29 05:10:49;;;;;;;;;;;11.20;99.90;;;;;;5108242;28;19912;-69
2022/05/29 05:13:15;;;;;;;;;;;11.10;99.90;;;;;;5081843;28;19990;-68
2022/05/29 05:15:40;;;;;;;;;;;11.00;99.90;;;;;;5088484;28;19920;-67
2022/05/29 05:18:06;;;;;;;;;;;11.10;99.90;;;;;;5108974;28;19979;-67
2022/05/29 05:20:33;;;;;;;;;;;11.20;99.90;;;;;;5088120;28;19919;-66
2022/05/29 05:22:59;;;;;;;;;;;11.20;99.90;;;;;;5094295;28;19951;-68
2022/05/29 05:25:24;;;;;;;;;;;11.30;99.90;;;;;;5095114;28;19913;-67
2022/05/29 05:27:50;;;;;;;;;;;11.30;99.90;;;;;;5092586;28;19924;-68
2022/05/29 05:30:15;;;;;;;;;;;11.30;99.90;;;;;;5092979;28;19903;-67
2022/05/29 05:32:42;;;;;;;;;;;11.20;99.90;;;;;;5097268;28;19916;-67
2022/05/29 05:35:08;;;;;;;;;;;11.30;99.90;;;;;;5094612;28;19954;-66
2022/05/29 05:37:37;;;;;;;;;;;11.50;99.90;;;;;;5096535;28;19931;-66
2022/05/29 05:40:04;;;;;;;;;;;11.50;99.90;;;;;;5094402;28;19949;-66
2022/05/29 05:42:29;;;;;;;;;;;11.50;99.90;;;;;;5094563;28;19901;-67
2022/05/29 05:44:55;;;;;;;;;;;11.50;99.90;;;;;;5095641;28;19931;-67
2022/05/29 05:47:22;;;;;;;;;;;11.50;99.90;;;;;;5090912;28;19916;-70
2022/05/29 05:49:51;;;;;;;;;;;11.60;99.90;;;;;;5094798;28;19927;-67
2022/05/29 05:52:17;;;;;;;;;;;11.60;99.90;;;;;;5091795;28;19927;-67
2022/05/29 05:54:42;;;;;;;;;;;11.70;99.90;;;;;;5089788;28;19928;-69
2022/05/29 05:57:08;;;;;;;;;;;11.70;99.90;;;;;;5084875;28;19921;-68
2022/05/29 05:59:34;;;;;;;;;;;11.70;99.90;;;;;;5078005;28;19920;-66
2022/05/29 06:02:00;;;;;;;;;;;11.80;99.90;;;;;;5077656;28;19904;-67
2022/05/29 06:04:25;;;;;;;;;;;11.90;99.90;;;;;;5086654;28;19958;-67
2022/05/29 06:06:51;;;;;;;;;;;11.90;99.90;;;;;;5086711;28;20617;-67
2022/05/29 06:09:19;;;;;;;;;;;11.90;99.90;;;;;;5094503;28;19935;-67
2022/05/29 06:11:45;;;;;;;;;;;12.00;99.90;;;;;;5092773;28;19947;-68
2022/05/29 06:14:11;;;;;;;;;;;12.10;99.90;;;;;;5093735;28;19916;-70
2022/05/29 06:16:36;;;;;;;;;;;12.30;99.90;;;;;;5093674;28;19924;-68
2022/05/29 06:19:02;;;;;;;;;;;12.20;99.90;;;;;;5092331;28;19984;-69
2022/05/29 06:21:28;;;;;;;;;;;12.20;99.90;;;;;;5102543;28;20015;-69
2022/05/29 06:23:54;;;;;;;;;;;12.10;99.90;;;;;;5105591;28;19916;-70
2022/05/29 06:26:19;;;;;;;;;;;12.20;99.90;;;;;;5102788;28;20164;-67
2022/05/29 06:28:45;;;;;;;;;;;12.20;99.90;;;;;;5111319;28;19916;-69
2022/05/29 06:31:11;;;;;;;;;;;12.20;99.90;;;;;;5110183;28;19920;-68
2022/05/29 06:33:37;;;;;;;;;;;12.20;99.90;;;;;;5110088;28;19979;-67
2022/05/29 06:36:25;;;;;;;;;;;12.10;99.90;;;;;;5086512;28;19920;-68
2022/05/29 06:38:51;;;;;;;;;;;12.10;99.90;;;;;;5104726;28;19912;-69
2022/05/29 06:41:18;;;;;;;;;;;12.20;99.90;;;;;;5106532;28;19919;-69
2022/05/29 06:43:44;;;;;;;;;;;12.20;99.90;;;;;;5107326;28;19904;-69
2022/05/29 06:46:10;;;;;;;;;;;12.40;99.90;;;;;;5093466;28;19949;-69
2022/05/29 06:48:37;;;;;;;;;;;12.30;99.90;;;;;;5106901;28;19920;-69
2022/05/29 06:51:04;;;;;;;;;;;12.40;99.90;;;;;;5102769;28;19923;-68
2022/05/29 06:53:29;;;;;;;;;;;12.70;99.90;;;;;;5102066;28;19980;-69
2022/05/29 06:55:55;;;;;;;;;;;12.90;99.90;;;;;;5107984;28;19912;-70
2022/05/29 06:58:22;;;;;;;;;;;13.00;99.90;;;;;;5108960;28;19966;-69
2022/05/29 07:09:03;;;;;;;;;;;13.60;99.90;;;;;;5102818;28;20779;-69
2022/05/29 07:11:31;;;;;;;;;;;13.80;99.90;;;;;;5105312;28;19920;-70
2022/05/29 07:13:58;;;;;;;;;;;13.80;99.90;;;;;;5104792;28;19947;-68
2022/05/29 07:16:23;;;;;;;;;;;13.60;99.90;;;;;;5107130;28;19979;-69
2022/05/29 07:18:50;;;;;;;;;;;13.60;99.90;;;;;;5105148;28;19900;-70
2022/05/29 07:21:16;;;;;;;;;;;13.90;99.90;;;;;;5106755;28;19995;-69
2022/05/29 07:23:42;;;;;;;;;;;14.00;99.90;;;;;;5104839;28;19919;-69
2022/05/29 07:26:07;;;;;;;;;;;14.10;99.90;;;;;;5103393;28;19937;-68
2022/05/29 07:28:33;;;;;;;;;;;14.00;99.90;;;;;;5104293;28;19923;-69
2022/05/29 07:30:59;;;;;;;;;;;14.10;99.90;;;;;;5086574;28;19951;-69
2022/05/29 07:33:25;;;;;;;;;;;14.20;99.90;;;;;;5097748;28;19978;-70
2022/05/29 07:35:51;;;;;;;;;;;14.30;99.90;;;;;;5102722;28;19975;-70
2022/05/29 07:38:17;;;;;;;;;;;14.20;99.90;;;;;;5105295;28;20301;-70
2022/05/29 07:40:42;;;;;;;;;;;14.20;99.80;;;;;;5105064;28;20252;-68
2022/05/29 07:43:21;;;;;;;;;;;14.20;99.20;;;;;;5103786;28;19912;-69
2022/05/29 07:45:52;;;;;;;;;;;14.00;99.30;;;;;;5105959;28;19916;-69
2022/05/29 07:48:19;;;;;;;;;;;13.90;99.10;;;;;;5079828;28;20590;-70
2022/05/29 07:50:44;;;;;;;;;;;14.00;99.70;;;;;;5098655;28;19935;-70
2022/05/29 07:53:10;;;;;;;;;;;14.00;99.80;;;;;;5105958;28;19912;-68
2022/05/29 07:55:37;;;;;;;;;;;14.10;98.70;;;;;;5104793;28;19915;-68
2022/05/29 07:58:03;;;;;;;;;;;14.10;98.20;;;;;;5105635;28;20239;-66
2022/05/29 08:00:29;;;;;;;;;;;14.20;97.20;;;;;;5093417;28;19954;-66
2022/05/29 08:02:54;;;;;;;;;;;14.10;97.20;;;;;;5100651;28;19904;-67
2022/05/29 08:05:21;;;;;;;;;;;14.00;96.40;;;;;;5098362;28;19912;-66
2022/05/29 08:07:47;;;;;;;;;;;14.10;96.60;;;;;;5097304;28;19912;-66
2022/05/29 08:10:13;;;;;;;;;;;14.10;96.80;;;;;;5099821;28;19912;-67
2022/05/29 08:12:39;;;;;;;;;;;14.10;96.20;;;;;;5092029;28;19923;-67
2022/05/29 08:15:05;;;;;;;;;;;14.10;97.20;;;;;;5107366;28;19916;-68
2022/05/29 08:17:31;;;;;;;;;;;14.10;97.00;;;;;;5103795;28;19912;-67
2022/05/29 08:19:57;;;;;;;;;;;14.30;96.90;;;;;;5101799;28;19935;-68
2022/05/29 08:22:23;;;;;;;;;;;14.40;97.00;;;;;;5103099;28;19920;-68
2022/05/29 08:30:37;;;;;;;;;;;14.60;97.00;;;;;;5095808;28;19920;-68
2022/05/29 08:33:04;;;;;;;;;;;14.30;97.70;;;;;;5081579;28;19916;-67
2022/05/29 08:35:30;;;;;;;;;;;14.30;98.30;;;;;;5096994;28;19912;-67
2022/05/29 08:37:56;;;;;;;;;;;14.40;98.10;;;;;;5095637;28;19916;-66
2022/05/29 08:40:22;;;;;;;;;;;14.40;96.80;;;;;;5094249;28;19916;-67
2022/05/29 08:42:48;;;;;;;;;;;14.10;97.90;;;;;;5095008;28;19951;-66
2022/05/29 08:45:15;;;;;;;;;;;14.20;97.50;;;;;;5103493;28;19904;-68
2022/05/29 08:47:41;;;;;;;;;;;14.10;97.70;;;;;;5105657;28;19920;-68
2022/05/29 08:50:10;;;;;;;;;;;14.30;98.10;;;;;;5101180;28;19916;-70
2022/05/29 08:52:41;;;;;;;;;;;14.50;98.10;;;;;;5105497;28;20322;-69
2022/05/29 08:55:10;;;;;;;;;;;14.60;97.60;;;;;;5105137;28;20617;-69
2022/05/29 08:57:42;;;;;;;;;;;14.60;97.20;;;;;;5095633;28;19916;-68
2022/05/29 09:00:20;;;;;;;;;;;14.40;96.90;;;;;;5095058;28;20328;-69
2022/05/29 09:02:54;;;;;;;;;;;14.50;96.60;;;;;;5095794;28;19924;-66
2022/05/29 09:05:20;;;;;;;;;;;14.50;97.00;;;;;;5087089;28;19943;-68
2022/05/29 09:07:49;;;;;;;;;;;14.60;96.40;;;;;;5082114;28;19955;-69
2022/05/29 09:10:14;;;;;;;;;;;14.60;96.30;;;;;;5096408;28;19913;-69
2022/05/29 09:12:51;;;;;;;;;;;14.70;96.00;;;;;;5073238;28;19923;-68
2022/05/29 09:15:26;;;;;;;;;;;15.00;95.20;;;;;;5092508;28;20089;-69
2022/05/29 09:17:52;;;;;;;;;;;15.10;93.90;;;;;;5091549;28;19924;-69
2022/05/29 09:20:23;;;;;;;;;;;15.00;93.80;;;;;;5092761;28;19920;-69
2022/05/29 09:22:48;;;;;;;;;;;15.10;93.30;;;;;;5060201;28;19947;-68
2022/05/29 09:25:14;;;;;;;;;;;15.20;93.00;;;;;;5093033;28;19989;-69
2022/05/29 09:27:43;;;;;;;;;;;15.40;92.60;;;;;;5094684;28;20027;-69
2022/05/29 09:30:09;;;;;;;;;;;15.30;92.90;;;;;;5099098;28;19947;-70
2022/05/29 09:32:35;;;;;;;;;;;15.10;93.20;;;;;;5092490;28;19920;-69
2022/05/29 09:35:10;;;;;;;;;;;15.00;93.00;;;;;;5084487;28;19920;-71
2022/05/29 09:37:39;;;;;;;;;;;15.00;93.90;;;;;;5085127;28;19916;-69
2022/05/29 09:40:10;;;;;;;;;;;14.90;93.50;;;;;;5084886;28;19927;-68
2022/05/29 09:42:39;;;;;;;;;;;14.90;93.10;;;;;;5088413;28;19916;-70
2022/05/29 09:45:12;;;;;;;;;;;15.00;93.60;;;;;;5084905;28;19938;-69
2022/05/29 09:50:25;;;;;;;;;;;15.80;91.70;;;;;;5086640;28;19965;-69
2022/05/29 09:52:51;;;;;;;;;;;16.10;90.40;;;;;;5084479;28;19913;-69
2022/05/29 09:55:29;;;;;;;;;;;16.20;90.00;;;;;;5084074;28;21932;-71
2022/05/29 09:57:56;;;;;;;;;;;16.00;90.30;;;;;;5089181;28;19912;-69
2022/05/29 10:00:27;;;;;;;;;;;15.70;90.50;;;;;;5066155;28;19916;-69
2022/05/29 10:02:53;;;;;;;;;;;15.50;90.40;;;;;;5084217;28;19991;-69
2022/05/29 10:05:25;;;;;;;;;;;15.60;91.00;;;;;;5083841;28;20148;-69
2022/05/29 10:07:51;;;;;;;;;;;15.70;90.70;;;;;;5083162;28;19927;-70
2022/05/29 10:10:16;;;;;;;;;;;15.80;90.40;;;;;;5086256;28;19916;-69
2022/05/29 10:12:44;;;;;;;;;;;16.10;90.70;;;;;;5091748;28;19912;-69
2022/05/29 10:15:28;;;;;;;;;;;16.50;89.50;;;;;;5091031;28;19946;-69
2022/05/29 10:18:01;;;;;;;;;;;16.60;88.80;;;;;;5070662;28;19912;-68
2022/05/29 10:20:37;;;;;;;;;;;16.70;88.90;;;;;;5085060;28;19967;-70
2022/05/29 10:23:05;;;;;;;;;;;16.50;88.70;;;;;;5087144;28;20007;-70
2022/05/29 10:25:35;;;;;;;;;;;16.70;88.20;;;;;;5089417;28;19912;-69
2022/05/29 10:28:03;;;;;;;;;;;16.90;87.60;;;;;;5088791;28;19912;-70
2022/05/29 10:30:31;;;;;;;;;;;17.20;87.50;;;;;;5086494;28;19933;-69
2022/05/29 10:33:08;;;;;;;;;;;17.50;86.00;;;;;;5083147;28;19961;-70
2022/05/29 10:35:37;;;;;;;;;;;17.20;86.40;;;;;;5090871;28;19919;-67
2022/05/29 10:38:19;;;;;;;;;;;17.00;88.10;;;;;;5086419;28;20016;-69
2022/05/29 10:40:46;;;;;;;;;;;17.20;86.80;;;;;;5087451;28;19989;-69
2022/05/29 10:43:12;;;;;;;;;;;17.20;86.10;;;;;;5072304;28;19920;-68
2022/05/29 10:45:42;;;;;;;;;;;17.10;85.90;;;;;;5086819;28;21572;-69
2022/05/29 10:48:08;;;;;;;;;;;17.30;86.00;;;;;;5069604;28;19920;-70
2022/05/29 10:50:43;;;;;;;;;;;17.20;85.60;;;;;;5069456;28;19977;-68
2022/05/29 10:53:19;;;;;;;;;;;17.20;86.60;;;;;;5091183;28;19923;-68
2022/05/29 10:56:02;;;;;;;;;;;17.30;86.70;;;;;;5089224;28;19916;-71
2022/05/29 10:58:42;;;;;;;;;;;17.00;87.00;;;;;;5091227;28;20416;-70
2022/05/29 11:04:19;;;;;;;;;;;17.10;85.50;;;;;;5087069;28;19947;-70
2022/05/29 11:06:59;;;;;;;;;;;16.70;87.00;;;;;;5087208;28;19912;-69
2022/05/29 11:09:30;;;;;;;;;;;16.70;87.00;;;;;;5087251;28;19920;-70
2022/05/29 11:12:16;;;;;;;;;;;16.70;86.10;;;;;;5082072;28;20324;-67
2022/05/29 11:14:53;;;;;;;;;;;16.80;87.10;;;;;;5088469;28;19954;-68
2022/05/29 11:17:24;;;;;;;;;;;16.90;86.60;;;;;;5090800;28;19924;-69
2022/05/29 11:20:08;;;;;;;;;;;17.30;86.70;;;;;;5084424;28;20066;-68
2022/05/29 11:22:39;;;;;;;;;;;17.60;84.60;;;;;;5084143;28;20225;-66
2022/05/29 11:25:14;;;;;;;;;;;17.60;83.80;;;;;;5083859;28;19920;-66
2022/05/29 11:27:46;;;;;;;;;;;17.60;84.10;;;;;;5083463;28;19912;-66
2022/05/29 11:30:21;;;;;;;;;;;17.40;84.30;;;;;;5079854;28;19979;-67
2022/05/29 11:32:53;;;;;;;;;;;17.40;85.10;;;;;;5084148;28;19986;-67
2022/05/29 11:35:41;;;;;;;;;;;17.00;86.00;;;;;;5067089;28;19912;-67
2022/05/29 11:38:26;;;;;;;;;;;17.00;87.40;;;;;;5087804;28;19916;-67
2022/05/29 11:40:53;;;;;;;;;;;16.70;87.40;;;;;;5095105;28;19928;-68
2022/05/29 11:43:25;;;;;;;;;;;16.30;88.10;;;;;;5087875;28;19912;-69
2022/05/29 11:51:50;;;;;;;;;;;16.10;88.70;;;;;;5094110;28;19919;-68
2022/05/29 11:54:18;;;;;;;;;;;16.00;89.60;;;;;;5098664;28;19927;-66
2022/05/29 11:56:48;;;;;;;;;;;15.70;90.10;;;;;;5100429;28;19962;-69
2022/05/29 11:59:20;;;;;;;;;;;15.80;91.00;;;;;;5093762;28;19959;-68
2022/05/29 12:02:09;;;;;;;;;;;15.80;90.50;;;;;;5076541;28;19912;-68
2022/05/29 12:04:50;;;;;;;;;;;15.70;90.20;;;;;;5065852;28;19966;-66
2022/05/29 12:07:19;;;;;;;;;;;15.80;90.00;;;;;;5094579;28;19927;-67
2022/05/29 12:09:58;;;;;;;;;;;15.70;90.00;;;;;;5095767;28;20483;-66
2022/05/29 12:12:35;;;;;;;;;;;15.60;90.40;;;;;;5087742;28;20056;-68
2022/05/29 12:15:02;;;;;;;;;;;15.50;90.70;;;;;;5093475;28;20014;-68
2022/05/29 12:17:31;;;;;;;;;;;15.40;91.30;;;;;;5100504;28;19935;-69
2022/05/29 12:20:03;;;;;;;;;;;15.40;91.30;;;;;;5091807;28;20125;-68
2022/05/29 12:22:41;;;;;;;;;;;15.10;91.60;;;;;;5090293;28;19927;-67
2022/05/29 12:25:18;;;;;;;;;;;14.90;92.80;;;;;;5081540;28;20050;-68
2022/05/29 12:27:47;;;;;;;;;;;14.60;94.20;;;;;;5087512;28;20433;-66
2022/05/29 12:30:21;;;;;;;;;;;14.70;95.20;;;;;;5092770;28;19912;-68
2022/05/29 12:32:47;;;;;;;;;;;14.80;94.70;;;;;;5097907;28;19912;-67
2022/05/29 12:35:22;;;;;;;;;;;14.70;95.40;;;;;;5097232;28;19912;-67
2022/05/29 12:38:04;;;;;;;;;;;14.60;96.20;;;;;;5099239;28;19922;-68
2022/05/29 12:40:30;;;;;;;;;;;14.70;96.30;;;;;;5074645;28;19920;-66
2022/05/29 12:43:10;;;;;;;;;;;14.80;95.50;;;;;;5096886;28;19950;-68
2022/05/29 12:45:54;;;;;;;;;;;14.90;95.30;;;;;;5088465;28;19912;-66
2022/05/29 12:48:39;;;;;;;;;;;15.00;94.60;;;;;;5089322;28;19912;-72
2022/05/29 12:51:11;;;;;;;;;;;15.20;94.00;;;;;;5083894;28;20013;-67
2022/05/29 12:53:39;;;;;;;;;;;15.40;94.20;;;;;;5074894;28;20421;-68
2022/05/29 12:56:10;;;;;;;;;;;15.50;93.80;;;;;;5088148;28;19922;-71
2022/05/29 12:58:39;;;;;;;;;;;15.70;93.90;;;;;;5087587;28;19965;-70
2022/05/29 13:01:10;;;;;;;;;;;16.10;92.90;;;;;;5089939;28;19924;-71
2022/05/29 13:03:55;;;;;;;;;;;16.20;91.80;;;;;;5087721;28;19973;-67
2022/05/29 13:06:23;;;;;;;;;;;15.80;93.50;;;;;;5077801;28;20339;-67
2022/05/29 13:08:51;;;;;;;;;;;15.90;93.70;;;;;;5085897;28;19912;-68
2022/05/29 13:11:19;;;;;;;;;;;15.90;93.70;;;;;;5085636;28;19934;-68
2022/05/29 13:13:47;;;;;;;;;;;15.80;93.60;;;;;;5069685;28;19913;-69
2022/05/29 13:16:19;;;;;;;;;;;15.90;93.80;;;;;;5089149;28;19927;-69
2022/05/29 13:21:53;;;;;;;;;;;16.10;94.10;;;;;;5079760;28;19927;-69
2022/05/29 13:24:22;;;;;;;;;;;15.70;94.00;;;;;;5085504;28;19959;-69
2022/05/29 13:27:06;;;;;;;;;;;15.30;95.10;;;;;;5058448;28;19935;-68
2022/05/29 13:29:35;;;;;;;;;;;15.40;95.60;;;;;;5088036;28;19939;-71
2022/05/29 13:32:13;;;;;;;;;;;15.40;95.20;;;;;;5074465;28;20577;-71
2022/05/29 13:34:39;;;;;;;;;;;15.50;95.40;;;;;;5080372;28;19999;-69
2022/05/29 13:37:06;;;;;;;;;;;15.50;95.90;;;;;;5076985;28;20111;-70
2022/05/29 13:39:35;;;;;;;;;;;15.50;96.00;;;;;;5082650;28;20048;-69
2022/05/29 13:42:02;;;;;;;;;;;15.50;96.20;;;;;;5086724;28;20007;-70
2022/05/29 13:44:32;;;;;;;;;;;15.40;96.30;;;;;;5088699;28;19920;-71
2022/05/29 13:47:25;;;;;;;;;;;15.30;96.30;;;;;;5082552;28;19920;-70
2022/05/29 13:49:51;;;;;;;;;;;15.20;97.00;;;;;;5077756;28;19940;-69
2022/05/29 13:52:20;;;;;;;;;;;15.20;97.30;;;;;;5089649;28;19913;-69
2022/05/29 13:54:59;;;;;;;;;;;15.30;97.50;;;;;;5090471;28;20328;-70
2022/05/29 14:06:27;;;;;;;;;;;15.60;97.80;;;;;;5086735;28;20229;-70
2022/05/29 14:08:57;;;;;;;;;;;15.70;97.50;;;;;;5095240;28;19918;-70
2022/05/29 14:11:43;;;;;;;;;;;15.60;97.00;;;;;;5084193;28;20275;-71
2022/05/29 14:14:27;;;;;;;;;;;15.60;97.60;;;;;;5091221;28;19924;-70
2022/05/29 14:16:53;;;;;;;;;;;15.80;97.10;;;;;;5076664;28;19975;-68
2022/05/29 14:19:19;;;;;;;;;;;15.90;97.40;;;;;;5097560;28;19963;-68
2022/05/29 14:22:02;;;;;;;;;;;16.20;97.20;;;;;;5077420;28;19924;-68
2022/05/29 14:24:37;;;;;;;;;;;16.60;96.00;;;;;;5078781;28;19966;-68
2022/05/29 14:27:03;;;;;;;;;;;16.60;94.10;;;;;;5097501;28;20333;-68
2022/05/29 14:29:36;;;;;;;;;;;16.30;94.80;;;;;;5104253;28;19931;-68
2022/05/29 14:32:01;;;;;;;;;;;16.00;95.50;;;;;;5091737;28;19913;-68
2022/05/29 14:34:40;;;;;;;;;;;16.10;95.30;;;;;;5095728;28;19919;-68
2022/05/29 14:37:32;;;;;;;;;;;16.40;95.20;;;;;;5099158;28;19912;-68
2022/05/29 14:39:58;;;;;;;;;;;17.10;93.50;;;;;;5073852;28;19974;-68
2022/05/29 14:42:25;;;;;;;;;;;18.80;88.40;;;;;;5101798;28;19916;-69
2022/05/29 14:44:54;;;;;;;;;;;19.80;82.00;;;;;;5093884;28;19935;-70
2022/05/29 14:47:25;;;;;;;;;;;20.00;80.60;;;;;;5095961;28;19994;-68
2022/05/29 14:49:53;;;;;;;;;;;20.50;80.00;;;;;;5081661;28;19999;-69
2022/05/29 14:52:49;;;;;;;;;;;20.40;78.70;;;;;;5083845;28;20373;-68
2022/05/29 14:55:17;;;;;;;;;;;19.90;80.30;;;;;;5067883;28;20007;-70
2022/05/29 14:57:55;;;;;;;;;;;20.00;80.60;;;;;;5080121;28;19913;-70
2022/05/29 15:00:32;;;;;;;;;;;19.80;79.80;;;;;;5086358;28;19981;-69
2022/05/29 15:03:00;;;;;;;;;;;19.30;79.90;;;;;;5087430;28;19922;-70
2022/05/29 15:05:26;;;;;;;;;;;19.30;80.00;;;;;;5086562;28;19929;-68
2022/05/29 15:10:44;;;;;;;;;;;18.80;80.60;;;;;;5090205;28;19934;-68
2022/05/29 15:13:12;;;;;;;;;;;18.40;81.90;;;;;;5087814;28;19962;-67
2022/05/29 15:15:45;;;;;;;;;;;17.90;81.50;;;;;;5085199;28;19986;-66
2022/05/29 15:18:15;;;;;;;;;;;17.80;83.10;;;;;;5089520;28;19963;-67
2022/05/29 15:26:27;;;;;;;;;;;17.30;84.00;;;;;;5052401;28;19927;-67